Time,TemperatureF,DewpointF,PressureIn,WindDirection,WindDirectionDegrees,WindSpeedMPH,WindSpeedGustMPH,Humidity,HourlyPrecipIn,Conditions,Clouds,dailyrainin,SoftwareType,DateUTC
2013-01-10 00:00:00,35.4,28.9,30.35,SSW,198,3.0,5.0,77,0.00,,SKC,0.00,VWS V14.01,2013-01-10 06:00:00,
2013-01-10 00:06:00,35.0,28.2,30.35,SSW,198,0.0,3.0,76,0.00,,SKC,0.00,VWS V14.01,2013-01-10 06:06:00,
2013-01-10 00:10:00,34.7,28.2,30.35,SSW,198,0.0,3.0,77,0.00,,SKC,0.00,VWS V14.01,2013-01-10 06:10:00,
2013-01-10 00:18:00,34.6,28.5,30.34,SSW,198,0.0,3.0,78,0.00,,SKC,0.00,VWS V14.01,2013-01-10 06:18:00,
2013-01-10 00:22:00,34.7,28.5,30.34,SSW,198,0.0,3.0,78,0.00,,SKC,0.00,VWS V14.01,2013-01-10 06:22:00,
2013-01-10 00:29:00,34.5,28.4,30.34,SSW,198,0.0,3.0,78,0.00,,SKC,0.00,VWS V14.01,2013-01-10 06:29:00,
2013-01-10 00:30:00,34.5,28.4,30.34,SSW,198,0.0,3.0,78,0.00,,SKC,0.00,VWS V14.01,2013-01-10 06:30:00,
2013-01-10 00:38:00,33.8,27.7,30.34,SSW,198,0.0,0.0,78,0.00,,SKC,0.00,VWS V14.01,2013-01-10 06:38:00,
2013-01-10 00:46:00,33.6,28.1,30.34,SSW,198,0.0,0.0,80,0.00,,SKC,0.00,VWS V14.01,2013-01-10 06:46:00,
2013-01-10 00:50:00,33.5,28.0,30.34,SSW,198,0.0,0.0,80,0.00,,SKC,0.00,VWS V14.01,2013-01-10 06:50:00,
2013-01-10 00:54:00,33.5,28.0,30.33,SSW,198,0.0,0.0,80,0.00,,SKC,0.00,VWS V14.01,2013-01-10 06:54:00,
2013-01-10 00:58:00,33.5,28.0,30.33,SSW,198,0.0,0.0,80,0.00,,SKC,0.00,VWS V14.01,2013-01-10 06:58:00,
2013-01-10 01:00:00,33.6,28.1,30.33,SSW,198,0.0,0.0,80,0.00,,SKC,0.00,VWS V14.01,2013-01-10 07:00:00,
2013-01-10 01:06:00,33.2,27.7,30.33,SSW,198,0.0,0.0,80,0.00,,SKC,0.00,VWS V14.01,2013-01-10 07:06:00,
2013-01-10 01:10:00,32.9,27.7,30.33,SSW,198,0.0,0.0,81,0.00,,SKC,0.00,VWS V14.01,2013-01-10 07:10:00,
2013-01-10 01:18:00,33.3,28.4,30.33,SSW,198,0.0,0.0,82,0.00,,SKC,0.00,VWS V14.01,2013-01-10 07:18:00,
2013-01-10 01:26:00,33.7,28.2,30.32,SSW,198,0.0,2.0,80,0.00,,SKC,0.00,VWS V14.01,2013-01-10 07:26:00,
2013-01-10 01:29:00,33.7,28.2,30.32,SSW,198,0.0,2.0,80,0.00,,SKC,0.00,VWS V14.01,2013-01-10 07:29:00,
2013-01-10 01:30:00,33.7,28.2,30.32,SSW,198,0.0,0.0,80,0.00,,SKC,0.00,VWS V14.01,2013-01-10 07:30:00,
2013-01-10 01:34:00,33.6,28.1,30.32,SSW,198,0.0,0.0,80,0.00,,SKC,0.00,VWS V14.01,2013-01-10 07:34:00,
2013-01-10 01:38:00,33.7,28.2,30.32,SSW,198,0.0,0.0,80,0.00,,SKC,0.00,VWS V14.01,2013-01-10 07:38:00,
2013-01-10 01:46:00,33.8,28.6,30.32,SSW,198,0.0,0.0,81,0.00,,SKC,0.00,VWS V14.01,2013-01-10 07:46:00,
2013-01-10 01:50:00,33.7,28.2,30.31,SSW,198,0.0,0.0,80,0.00,,SKC,0.00,VWS V14.01,2013-01-10 07:50:00,
2013-01-10 01:54:00,33.7,28.2,30.31,SSW,198,0.0,0.0,80,0.00,,SKC,0.00,VWS V14.01,2013-01-10 07:54:00,
2013-01-10 01:58:00,33.4,27.9,30.31,SSW,198,0.0,0.0,80,0.00,,SKC,0.00,VWS V14.01,2013-01-10 07:58:00,
2013-01-10 01:59:00,33.4,27.9,30.31,SSW,198,0.0,0.0,80,0.00,,SKC,0.00,VWS V14.01,2013-01-10 07:59:00,
2013-01-10 02:00:00,33.4,27.9,30.31,SSW,198,0.0,0.0,80,0.00,,SKC,0.00,VWS V14.01,2013-01-10 08:00:00,
2013-01-10 02:06:00,33.3,28.1,30.31,SSW,198,0.0,0.0,81,0.00,,SKC,0.00,VWS V14.01,2013-01-10 08:06:00,
2013-01-10 02:14:00,33.2,28.3,30.31,SSW,198,0.0,0.0,82,0.00,,SKC,0.00,VWS V14.01,2013-01-10 08:14:00,
2013-01-10 02:18:00,33.2,28.3,30.31,SSW,198,0.0,0.0,82,0.00,,SKC,0.00,VWS V14.01,2013-01-10 08:18:00,
2013-01-10 02:22:00,33.5,28.9,30.31,SSW,198,0.0,0.0,83,0.00,,SKC,0.00,VWS V14.01,2013-01-10 08:22:00,
2013-01-10 02:26:00,34.2,29.3,30.31,SSW,198,0.0,0.0,82,0.00,,SKC,0.00,VWS V14.01,2013-01-10 08:26:00,
2013-01-10 02:29:00,34.4,29.2,30.31,SSW,198,0.0,0.0,81,0.00,,SKC,0.00,VWS V14.01,2013-01-10 08:29:00,
2013-01-10 02:30:00,34.4,29.2,30.31,SSW,198,0.0,0.0,81,0.00,,SKC,0.00,VWS V14.01,2013-01-10 08:30:00,
2013-01-10 02:34:00,34.0,28.2,30.30,SSW,198,0.0,0.0,79,0.00,,SKC,0.00,VWS V14.01,2013-01-10 08:34:00,
2013-01-10 02:42:00,32.5,27.0,30.30,SSW,198,0.0,0.0,80,0.00,,SKC,0.00,VWS V14.01,2013-01-10 08:42:00,
2013-01-10 02:46:00,31.9,26.7,30.30,SSW,198,0.0,0.0,81,0.00,,SKC,0.00,VWS V14.01,2013-01-10 08:46:00,
2013-01-10 02:50:00,31.4,26.8,30.31,SSW,198,0.0,0.0,83,0.00,,SKC,0.00,VWS V14.01,2013-01-10 08:50:00,
2013-01-10 02:58:00,31.9,28.2,30.30,SSW,198,0.0,0.0,86,0.00,,SKC,0.00,VWS V14.01,2013-01-10 08:58:00,
2013-01-10 02:59:00,32.0,28.3,30.30,SSW,198,0.0,0.0,86,0.00,,SKC,0.00,VWS V14.01,2013-01-10 08:59:00,
2013-01-10 03:00:00,32.0,28.3,30.30,SSW,198,0.0,0.0,86,0.00,,SKC,0.00,VWS V14.01,2013-01-10 09:00:00,
2013-01-10 03:02:00,32.4,28.4,30.30,SSW,198,0.0,0.0,85,0.00,,SKC,0.00,VWS V14.01,2013-01-10 09:02:00,
2013-01-10 03:06:00,32.8,28.5,30.30,SSW,198,0.0,0.0,84,0.00,,SKC,0.00,VWS V14.01,2013-01-10 09:06:00,
2013-01-10 03:10:00,33.0,28.4,30.30,SSW,198,0.0,0.0,83,0.00,,SKC,0.00,VWS V14.01,2013-01-10 09:10:00,
2013-01-10 03:14:00,33.2,28.6,30.30,SSW,198,0.0,0.0,83,0.00,,SKC,0.00,VWS V14.01,2013-01-10 09:14:00,
2013-01-10 03:18:00,33.6,29.0,30.29,SSW,198,0.0,0.0,83,0.00,,SKC,0.00,VWS V14.01,2013-01-10 09:18:00,
2013-01-10 03:22:00,33.8,28.9,30.29,SSW,198,0.0,0.0,82,0.00,,SKC,0.00,VWS V14.01,2013-01-10 09:22:00,
2013-01-10 03:30:00,33.2,28.0,30.29,North,0,0.0,0.0,81,0.00,,SKC,0.00,VWS V14.01,2013-01-10 09:30:00,
2013-01-10 04:00:00,33.0,28.4,30.28,North,0,0.0,0.0,83,0.00,,SKC,0.00,VWS V14.01,2013-01-10 10:00:00,
2013-01-10 04:30:00,32.5,28.2,30.26,North,0,0.0,0.0,84,0.00,,SKC,0.00,VWS V14.01,2013-01-10 10:30:00,
2013-01-10 05:00:00,32.8,27.3,30.24,North,0,0.0,0.0,80,0.00,,SKC,0.00,VWS V14.01,2013-01-10 11:00:00,
2013-01-10 05:30:00,33.6,28.1,30.23,North,0,0.0,0.0,80,0.00,,SKC,0.00,VWS V14.01,2013-01-10 11:30:00,
2013-01-10 06:00:00,31.4,27.1,30.20,North,0,0.0,0.0,84,0.00,,SKC,0.00,VWS V14.01,2013-01-10 12:00:00,
2013-01-10 06:30:00,30.9,26.4,30.18,ENE,68,0.0,4.0,83,0.00,,SKC,0.00,VWS V14.01,2013-01-10 12:30:00,
2013-01-10 07:00:00,31.8,25.7,30.17,ENE,68,1.0,6.0,78,0.00,,SKC,0.00,VWS V14.01,2013-01-10 13:00:00,
2013-01-10 07:59:00,33.2,26.5,30.15,SSE,148,2.0,7.0,76,0.00,,SKC,0.00,VWS V14.01,2013-01-10 13:59:00,
2013-01-10 08:02:00,33.4,26.7,30.15,SSE,155,2.0,10.0,76,0.00,,SKC,0.00,VWS V14.01,2013-01-10 14:02:00,
2013-01-10 08:06:00,33.9,26.8,30.15,ENE,76,3.0,10.0,75,0.00,,SKC,0.00,VWS V14.01,2013-01-10 14:06:00,
2013-01-10 08:10:00,34.4,27.3,30.15,SW,221,0.0,10.0,75,0.00,,SKC,0.00,VWS V14.01,2013-01-10 14:10:00,
2013-01-10 08:14:00,34.7,27.3,30.14,ENE,78,2.0,10.0,74,0.00,,SKC,0.00,VWS V14.01,2013-01-10 14:14:00,
2013-01-10 08:18:00,35.3,27.5,30.14,SSE,149,6.0,10.0,73,0.00,,SKC,0.00,VWS V14.01,2013-01-10 14:18:00,
2013-01-10 08:22:00,35.5,27.4,30.15,South,184,3.0,10.0,72,0.00,,SKC,0.00,VWS V14.01,2013-01-10 14:22:00,
2013-01-10 08:29:00,35.8,27.3,30.14,SE,124,3.0,10.0,71,0.00,,SKC,0.00,VWS V14.01,2013-01-10 14:29:00,
2013-01-10 08:30:00,35.9,27.8,30.14,ESE,102,3.0,7.0,72,0.00,,SKC,0.00,VWS V14.01,2013-01-10 14:30:00,
2013-01-10 08:34:00,36.0,27.5,30.13,ESE,104,8.0,8.0,71,0.00,,SKC,0.00,VWS V14.01,2013-01-10 14:34:00,
2013-01-10 08:42:00,36.4,27.6,30.13,South,172,0.0,10.0,70,0.00,,SKC,0.00,VWS V14.01,2013-01-10 14:42:00,
2013-01-10 08:50:00,36.7,28.2,30.12,East,100,2.0,10.0,71,0.00,,SKC,0.00,VWS V14.01,2013-01-10 14:50:00,
2013-01-10 08:54:00,36.8,27.6,30.12,ENE,72,0.0,10.0,69,0.00,,SKC,0.00,VWS V14.01,2013-01-10 14:54:00,
2013-01-10 08:59:00,36.9,27.7,30.11,SSE,154,2.0,10.0,69,0.00,,SKC,0.00,VWS V14.01,2013-01-10 14:59:00,
2013-01-10 09:02:00,37.0,27.8,30.11,WSW,249,0.0,11.0,69,0.00,,SKC,0.00,VWS V14.01,2013-01-10 15:02:00,
2013-01-10 09:06:00,37.1,28.2,30.11,SE,134,4.0,11.0,70,0.00,,SKC,0.00,VWS V14.01,2013-01-10 15:06:00,
2013-01-10 09:10:00,37.1,27.9,30.11,West,262,3.0,11.0,69,0.00,,SKC,0.00,VWS V14.01,2013-01-10 15:10:00,
2013-01-10 09:14:00,37.0,28.1,30.10,East,96,9.0,11.0,70,0.00,,SKC,0.00,VWS V14.01,2013-01-10 15:14:00,
2013-01-10 09:18:00,37.0,28.1,30.10,SSW,201,0.0,12.0,70,0.00,,SKC,0.00,VWS V14.01,2013-01-10 15:18:00,
2013-01-10 09:23:00,36.9,28.0,30.09,ENE,78,4.0,12.0,70,0.00,,SKC,0.00,VWS V14.01,2013-01-10 15:23:00,
2013-01-10 09:27:00,37.0,28.1,30.09,ESE,123,1.0,12.0,70,0.00,,SKC,0.00,VWS V14.01,2013-01-10 15:27:00,
2013-01-10 09:29:00,37.0,28.1,30.09,SE,145,4.0,12.0,70,0.00,,SKC,0.00,VWS V14.01,2013-01-10 15:29:00,
2013-01-10 09:31:00,37.0,28.1,30.09,SE,133,6.0,8.0,70,0.00,,SKC,0.00,VWS V14.01,2013-01-10 15:31:00,
2013-01-10 09:35:00,37.0,28.5,30.09,SSE,150,8.0,8.0,71,0.00,,SKC,0.00,VWS V14.01,2013-01-10 15:35:00,
2013-01-10 09:43:00,37.1,28.6,30.08,SE,136,5.0,10.0,71,0.00,,SKC,0.00,VWS V14.01,2013-01-10 15:43:00,
2013-01-10 09:47:00,37.1,28.6,30.08,SE,128,1.0,10.0,71,0.00,,SKC,0.00,VWS V14.01,2013-01-10 15:47:00,
2013-01-10 09:51:00,37.2,29.0,30.08,SE,145,0.0,10.0,72,0.00,,SKC,0.00,VWS V14.01,2013-01-10 15:51:00,
2013-01-10 09:55:00,37.2,29.0,30.08,East,94,6.0,10.0,72,0.00,,SKC,0.00,VWS V14.01,2013-01-10 15:55:00,
2013-01-10 09:59:00,37.2,29.0,30.08,ENE,64,3.0,10.0,72,0.00,,SKC,0.00,VWS V14.01,2013-01-10 15:59:00,
2013-01-10 10:07:00,37.3,29.8,30.07,East,85,2.0,8.0,74,0.00,,SKC,0.00,VWS V14.01,2013-01-10 16:07:00,
2013-01-10 10:15:00,37.3,31.1,30.06,ESE,115,7.0,19.0,78,0.00,,SKC,0.00,VWS V14.01,2013-01-10 16:15:00,
2013-01-10 10:19:00,37.0,31.7,30.06,WNW,292,3.0,19.0,81,0.00,,SKC,0.00,VWS V14.01,2013-01-10 16:19:00,
2013-01-10 10:27:00,36.6,31.9,30.06,SW,215,2.0,19.0,83,0.00,,SKC,0.00,VWS V14.01,2013-01-10 16:27:00,
2013-01-10 10:29:00,36.6,31.9,30.06,South,182,7.0,19.0,83,0.00,,SKC,0.00,VWS V14.01,2013-01-10 16:29:00,
2013-01-10 10:35:00,36.6,31.9,30.06,SE,132,2.0,11.0,83,0.00,,SKC,0.00,VWS V14.01,2013-01-10 16:35:00,
2013-01-10 10:43:00,36.5,32.1,30.04,SE,142,3.0,11.0,84,0.00,,SKC,0.00,VWS V14.01,2013-01-10 16:43:00,
2013-01-10 10:47:00,36.5,32.1,30.04,East,96,3.0,11.0,84,0.00,,SKC,0.00,VWS V14.01,2013-01-10 16:47:00,
2013-01-10 10:51:00,36.5,32.4,30.03,South,182,2.0,11.0,85,0.00,,SKC,0.00,VWS V14.01,2013-01-10 16:51:00,
2013-01-10 10:55:00,36.4,32.3,30.03,SSE,165,3.0,11.0,85,0.00,,SKC,0.00,VWS V14.01,2013-01-10 16:55:00,
2013-01-10 10:59:00,36.4,32.3,30.03,SSE,155,3.0,11.0,85,0.00,,SKC,0.00,VWS V14.01,2013-01-10 16:59:00,
2013-01-10 11:07:00,36.2,32.4,30.03,South,175,2.0,10.0,86,0.00,,SKC,0.00,VWS V14.01,2013-01-10 17:07:00,
2013-01-10 11:11:00,36.0,32.5,30.02,NNE,25,0.0,11.0,87,0.00,,SKC,0.00,VWS V14.01,2013-01-10 17:11:00,
2013-01-10 11:15:00,35.8,32.6,30.01,ENE,61,1.0,13.0,88,0.00,,SKC,0.00,VWS V14.01,2013-01-10 17:15:00,
2013-01-10 11:19:00,35.6,32.7,30.01,SSW,202,2.0,13.0,89,0.00,,SKC,0.00,VWS V14.01,2013-01-10 17:19:00,
2013-01-10 11:23:00,35.4,32.8,30.00,East,84,0.0,13.0,90,0.00,,SKC,0.00,VWS V14.01,2013-01-10 17:23:00,
2013-01-10 11:27:00,35.3,32.7,30.00,SW,219,0.0,13.0,90,0.00,,SKC,0.00,VWS V14.01,2013-01-10 17:27:00,
2013-01-10 11:29:00,35.3,32.7,30.00,SSE,163,4.0,13.0,90,0.00,,SKC,0.00,VWS V14.01,2013-01-10 17:29:00,
2013-01-10 11:35:00,35.2,32.8,29.99,SSE,156,0.0,6.0,91,0.00,,SKC,0.00,VWS V14.01,2013-01-10 17:35:00,
2013-01-10 11:43:00,35.1,32.7,29.98,ESE,107,0.0,9.0,91,0.00,,SKC,0.00,VWS V14.01,2013-01-10 17:43:00,
2013-01-10 11:47:00,35.2,32.8,29.97,SSE,162,0.0,9.0,91,0.00,,SKC,0.00,VWS V14.01,2013-01-10 17:47:00,
2013-01-10 11:51:00,35.2,32.8,29.97,ESE,105,2.0,9.0,91,0.00,,SKC,0.00,VWS V14.01,2013-01-10 17:51:00,
2013-01-10 11:55:00,35.3,32.9,29.97,SSE,157,4.0,9.0,91,0.00,,SKC,0.00,VWS V14.01,2013-01-10 17:55:00,
2013-01-10 11:59:00,35.3,32.9,29.97,SSE,150,0.0,9.0,91,0.01,,SKC,0.01,VWS V14.01,2013-01-10 17:59:00,
2013-01-10 12:07:00,35.4,33.0,29.97,South,169,2.0,6.0,91,0.01,,SKC,0.01,VWS V14.01,2013-01-10 18:07:00,
2013-01-10 12:11:00,35.4,33.0,29.97,ESE,112,1.0,7.0,91,0.01,,SKC,0.01,VWS V14.01,2013-01-10 18:11:00,
2013-01-10 12:15:00,35.4,33.0,29.97,SSE,168,4.0,7.0,91,0.02,,SKC,0.02,VWS V14.01,2013-01-10 18:15:00,
2013-01-10 12:23:00,35.3,32.9,29.97,SSE,155,4.0,7.0,91,0.02,,SKC,0.02,VWS V14.01,2013-01-10 18:23:00,
2013-01-10 12:29:00,35.3,32.9,29.96,SSE,165,0.0,7.0,91,0.03,,SKC,0.03,VWS V14.01,2013-01-10 18:29:00,
2013-01-10 12:31:00,35.3,32.9,29.95,SSE,168,0.0,2.0,91,0.03,,SKC,0.03,VWS V14.01,2013-01-10 18:31:00,
2013-01-10 12:39:00,35.2,33.1,29.95,SSE,168,0.0,2.0,92,0.03,,SKC,0.03,VWS V14.01,2013-01-10 18:39:00,
2013-01-10 12:47:00,35.3,33.2,29.94,SSE,168,0.0,2.0,92,0.04,,SKC,0.04,VWS V14.01,2013-01-10 18:47:00,
2013-01-10 12:51:00,35.5,33.7,29.93,SSE,168,0.0,2.0,93,0.04,,SKC,0.04,VWS V14.01,2013-01-10 18:51:00,
2013-01-10 12:55:00,35.5,33.7,29.93,SSE,168,0.0,2.0,93,0.05,,SKC,0.05,VWS V14.01,2013-01-10 18:55:00,
2013-01-10 12:59:00,35.6,33.8,29.93,SSE,168,0.0,2.0,93,0.05,,SKC,0.05,VWS V14.01,2013-01-10 18:59:00,
2013-01-10 13:03:00,35.7,33.9,29.93,SSE,168,0.0,0.0,93,0.05,,SKC,0.06,VWS V14.01,2013-01-10 19:03:00,
2013-01-10 13:07:00,35.8,34.0,29.93,SSE,168,0.0,0.0,93,0.05,,SKC,0.06,VWS V14.01,2013-01-10 19:07:00,
2013-01-10 13:15:00,36.0,34.2,29.92,SSE,168,0.0,0.0,93,0.06,,SKC,0.07,VWS V14.01,2013-01-10 19:15:00,
2013-01-10 13:19:00,35.9,34.1,29.92,SSE,167,0.0,0.0,93,0.06,,SKC,0.07,VWS V14.01,2013-01-10 19:19:00,
2013-01-10 13:23:00,35.9,34.1,29.92,SSE,167,0.0,0.0,93,0.06,,SKC,0.07,VWS V14.01,2013-01-10 19:23:00,
2013-01-10 13:29:00,35.9,34.3,29.91,SSE,167,0.0,0.0,94,0.06,,SKC,0.07,VWS V14.01,2013-01-10 19:29:00,
2013-01-10 13:31:00,36.0,34.4,29.91,SSE,167,0.0,0.0,94,0.04,,SKC,0.07,VWS V14.01,2013-01-10 19:31:00,
2013-01-10 13:39:00,36.0,34.4,29.91,ESE,110,0.0,0.0,94,0.04,,SKC,0.07,VWS V14.01,2013-01-10 19:39:00,
2013-01-10 13:43:00,35.9,34.3,29.91,ESE,110,0.0,0.0,94,0.04,,SKC,0.07,VWS V14.01,2013-01-10 19:43:00,
2013-01-10 13:47:00,35.9,34.3,29.91,ESE,103,0.0,0.0,94,0.04,,SKC,0.07,VWS V14.01,2013-01-10 19:47:00,
2013-01-10 13:55:00,35.9,34.3,29.91,ESE,111,0.0,3.0,94,0.04,,SKC,0.07,VWS V14.01,2013-01-10 19:55:00,
2013-01-10 13:59:00,36.0,34.4,29.91,ESE,114,0.0,3.0,94,0.04,,SKC,0.07,VWS V14.01,2013-01-10 19:59:00,
2013-01-10 14:07:00,36.3,34.7,29.90,ESE,111,0.0,0.0,94,0.03,,SKC,0.08,VWS V14.01,2013-01-10 20:07:00,
2013-01-10 14:15:00,36.5,35.2,29.89,ESE,111,0.0,0.0,95,0.03,,SKC,0.08,VWS V14.01,2013-01-10 20:15:00,
2013-01-10 14:23:00,36.4,34.8,29.89,ESE,109,0.0,0.0,94,0.03,,SKC,0.08,VWS V14.01,2013-01-10 20:23:00,
2013-01-10 14:29:00,36.5,34.9,29.89,ESE,109,0.0,0.0,94,0.03,,SKC,0.08,VWS V14.01,2013-01-10 20:29:00,
2013-01-10 14:31:00,36.6,35.3,29.89,ESE,109,0.0,0.0,95,0.01,,SKC,0.08,VWS V14.01,2013-01-10 20:31:00,
2013-01-10 14:39:00,36.6,35.3,29.88,ESE,113,0.0,0.0,95,0.01,,SKC,0.08,VWS V14.01,2013-01-10 20:39:00,
2013-01-10 14:43:00,36.4,34.8,29.88,SE,144,4.0,4.0,94,0.01,,SKC,0.08,VWS V14.01,2013-01-10 20:43:00,
2013-01-10 14:47:00,36.3,34.7,29.88,ESE,119,0.0,4.0,94,0.01,,SKC,0.08,VWS V14.01,2013-01-10 20:47:00,
2013-01-10 14:55:00,36.3,35.0,29.87,ENE,76,0.0,4.0,95,0.01,,SKC,0.08,VWS V14.01,2013-01-10 20:55:00,
2013-01-10 14:59:00,36.4,35.1,29.87,South,174,0.0,4.0,95,0.01,,SKC,0.08,VWS V14.01,2013-01-10 20:59:00,
2013-01-10 15:07:00,36.4,35.1,29.86,SW,229,0.0,3.0,95,0.01,,SKC,0.08,VWS V14.01,2013-01-10 21:07:00,
2013-01-10 15:11:00,36.4,35.1,29.86,SSE,148,0.0,3.0,95,0.01,,SKC,0.08,VWS V14.01,2013-01-10 21:11:00,
2013-01-10 15:15:00,36.4,35.1,29.86,East,100,0.0,3.0,95,0.01,,SKC,0.08,VWS V14.01,2013-01-10 21:15:00,
2013-01-10 15:19:00,36.4,34.8,29.86,East,89,3.0,4.0,94,0.01,,SKC,0.08,VWS V14.01,2013-01-10 21:19:00,
2013-01-10 15:23:00,36.4,34.8,29.85,SE,128,4.0,6.0,94,0.01,,SKC,0.08,VWS V14.01,2013-01-10 21:23:00,
2013-01-10 15:27:00,36.4,34.8,29.85,South,182,0.0,6.0,94,0.01,,SKC,0.08,VWS V14.01,2013-01-10 21:27:00,
2013-01-10 15:29:00,36.5,34.9,29.86,South,169,0.0,6.0,94,0.01,,SKC,0.08,VWS V14.01,2013-01-10 21:29:00,
2013-01-10 15:35:00,36.7,35.4,29.86,South,182,2.0,4.0,95,0.00,,SKC,0.08,VWS V14.01,2013-01-10 21:35:00,
2013-01-10 15:43:00,36.7,35.4,29.87,South,174,4.0,7.0,95,0.00,,SKC,0.08,VWS V14.01,2013-01-10 21:43:00,
2013-01-10 15:51:00,36.6,35.0,29.86,SSE,163,2.0,8.0,94,0.00,,SKC,0.08,VWS V14.01,2013-01-10 21:51:00,
2013-01-10 15:55:00,36.6,35.0,29.87,SSE,161,4.0,8.0,94,0.00,,SKC,0.08,VWS V14.01,2013-01-10 21:55:00,
2013-01-10 15:59:00,36.6,35.0,29.87,SSE,157,5.0,8.0,94,0.00,,SKC,0.08,VWS V14.01,2013-01-10 21:59:00,
2013-01-10 16:07:00,36.5,34.9,29.86,SE,146,3.0,7.0,94,0.00,,SKC,0.08,VWS V14.01,2013-01-10 22:07:00,
2013-01-10 16:11:00,36.3,34.7,29.85,SE,146,4.0,7.0,94,0.00,,SKC,0.08,VWS V14.01,2013-01-10 22:11:00,
2013-01-10 16:15:00,36.2,34.6,29.85,ESE,115,0.0,7.0,94,0.00,,SKC,0.08,VWS V14.01,2013-01-10 22:15:00,
2013-01-10 16:23:00,36.1,34.5,29.83,East,85,0.0,7.0,94,0.02,,SKC,0.10,VWS V14.01,2013-01-10 22:23:00,
2013-01-10 16:27:00,36.1,34.5,29.84,SE,132,1.0,7.0,94,0.03,,SKC,0.11,VWS V14.01,2013-01-10 22:27:00,
2013-01-10 16:31:00,36.1,34.5,29.84,ESE,115,0.0,7.0,94,0.05,,SKC,0.13,VWS V14.01,2013-01-10 22:31:00,
2013-01-10 16:39:00,35.9,34.3,29.83,ESE,115,2.0,7.0,94,0.08,,SKC,0.16,VWS V14.01,2013-01-10 22:39:00,
2013-01-10 16:43:00,35.9,34.3,29.83,South,171,0.0,7.0,94,0.09,,SKC,0.17,VWS V14.01,2013-01-10 22:43:00,
2013-01-10 16:51:00,35.9,34.6,29.83,South,171,0.0,7.0,95,0.09,,SKC,0.17,VWS V14.01,2013-01-10 22:51:00,
2013-01-10 16:59:00,36.1,34.8,29.83,SSE,165,0.0,7.0,95,0.10,,SKC,0.18,VWS V14.01,2013-01-10 22:59:00,
2013-01-10 17:00:00,36.1,34.8,29.83,SSE,165,0.0,0.0,95,0.10,,SKC,0.18,VWS V14.01,2013-01-10 23:00:00,
2013-01-10 17:08:00,36.3,35.0,29.83,SSE,161,2.0,5.0,95,0.10,,SKC,0.18,VWS V14.01,2013-01-10 23:08:00,
2013-01-10 17:12:00,36.3,35.0,29.83,SSE,154,3.0,5.0,95,0.10,,SKC,0.18,VWS V14.01,2013-01-10 23:12:00,
2013-01-10 17:16:00,36.2,34.9,29.83,South,169,0.0,5.0,95,0.10,,SKC,0.18,VWS V14.01,2013-01-10 23:16:00,
2013-01-10 17:20:00,36.2,34.9,29.83,SE,132,0.0,5.0,95,0.10,,SKC,0.18,VWS V14.01,2013-01-10 23:20:00,
2013-01-10 17:28:00,35.9,34.6,29.83,SSE,154,3.0,5.0,95,0.10,,SKC,0.18,VWS V14.01,2013-01-10 23:28:00,
2013-01-10 17:29:00,35.9,34.6,29.83,SSE,153,4.0,5.0,95,0.10,,SKC,0.18,VWS V14.01,2013-01-10 23:29:00,
2013-01-10 17:36:00,36.0,34.7,29.82,SSE,157,3.0,5.0,95,0.06,,SKC,0.18,VWS V14.01,2013-01-10 23:36:00,
2013-01-10 17:44:00,35.9,34.6,29.81,SE,146,0.0,5.0,95,0.06,,SKC,0.18,VWS V14.01,2013-01-10 23:44:00,
2013-01-10 17:48:00,35.8,34.5,29.82,SSE,164,4.0,5.0,95,0.06,,SKC,0.18,VWS V14.01,2013-01-10 23:48:00,
2013-01-10 17:56:00,35.8,34.5,29.81,SSE,155,0.0,6.0,95,0.06,,SKC,0.18,VWS V14.01,2013-01-10 23:56:00,
2013-01-10 17:59:00,35.8,34.5,29.81,East,95,0.0,6.0,95,0.06,,SKC,0.18,VWS V14.01,2013-01-10 23:59:00,
2013-01-10 18:04:00,35.8,34.5,29.81,SSE,158,0.0,0.0,95,0.00,,SKC,0.18,VWS V14.01,2013-01-11 00:04:00,
2013-01-10 18:08:00,35.7,34.4,29.80,South,186,0.0,3.0,95,0.00,,SKC,0.18,VWS V14.01,2013-01-11 00:08:00,
2013-01-10 18:12:00,35.6,34.3,29.80,SSE,165,0.0,3.0,95,0.00,,SKC,0.18,VWS V14.01,2013-01-11 00:12:00,
2013-01-10 18:16:00,35.6,34.3,29.80,SSE,159,0.0,3.0,95,0.00,,SKC,0.18,VWS V14.01,2013-01-11 00:16:00,
2013-01-10 18:20:00,35.5,34.2,29.80,ESE,120,1.0,3.0,95,0.00,,SKC,0.18,VWS V14.01,2013-01-11 00:20:00,
2013-01-10 18:24:00,35.4,34.1,29.80,SSE,157,3.0,4.0,95,0.00,,SKC,0.18,VWS V14.01,2013-01-11 00:24:00,
2013-01-10 18:28:00,35.5,34.2,29.80,SSE,157,5.0,5.0,95,0.00,,SKC,0.18,VWS V14.01,2013-01-11 00:28:00,
2013-01-10 18:29:00,35.5,34.2,29.80,SSE,156,5.0,6.0,95,0.00,,SKC,0.18,VWS V14.01,2013-01-11 00:29:00,
2013-01-10 18:36:00,35.5,34.2,29.79,SE,127,0.0,6.0,95,0.00,,SKC,0.18,VWS V14.01,2013-01-11 00:36:00,
2013-01-10 18:40:00,35.5,34.2,29.78,SSE,156,2.0,6.0,95,0.00,,SKC,0.18,VWS V14.01,2013-01-11 00:40:00,
2013-01-10 18:44:00,35.7,34.4,29.79,South,179,4.0,7.0,95,0.00,,SKC,0.18,VWS V14.01,2013-01-11 00:44:00,
2013-01-10 18:48:00,35.7,34.4,29.79,SSE,163,4.0,7.0,95,0.00,,SKC,0.18,VWS V14.01,2013-01-11 00:48:00,
2013-01-10 18:56:00,35.6,34.3,29.78,SSE,168,3.0,7.0,95,0.00,,SKC,0.18,VWS V14.01,2013-01-11 00:56:00,
2013-01-10 18:59:00,35.6,34.3,29.77,SE,138,0.0,7.0,95,0.00,,SKC,0.18,VWS V14.01,2013-01-11 00:59:00,
2013-01-10 19:00:00,35.6,34.3,29.77,ESE,111,0.0,0.0,95,0.00,,SKC,0.18,VWS V14.01,2013-01-11 01:00:00,
2013-01-10 19:08:00,35.6,34.3,29.78,SSE,151,0.0,4.0,95,0.00,,SKC,0.18,VWS V14.01,2013-01-11 01:08:00,
2013-01-10 19:12:00,35.5,34.2,29.77,SE,137,0.0,4.0,95,0.00,,SKC,0.18,VWS V14.01,2013-01-11 01:12:00,
2013-01-10 19:20:00,35.6,34.6,29.77,SE,130,0.0,4.0,96,0.00,,SKC,0.18,VWS V14.01,2013-01-11 01:20:00,
2013-01-10 19:28:00,35.6,34.6,29.78,SSE,147,4.0,6.0,96,0.00,,SKC,0.18,VWS V14.01,2013-01-11 01:28:00,
2013-01-10 19:32:00,35.6,34.6,29.78,SSE,162,2.0,4.0,96,0.00,,SKC,0.18,VWS V14.01,2013-01-11 01:32:00,
2013-01-10 19:40:00,35.5,34.5,29.77,SSE,147,0.0,4.0,96,0.00,,SKC,0.18,VWS V14.01,2013-01-11 01:40:00,
2013-01-10 19:48:00,35.5,34.5,29.78,South,176,4.0,5.0,96,0.00,,SKC,0.18,VWS V14.01,2013-01-11 01:48:00,
2013-01-10 19:56:00,35.0,34.0,29.79,South,174,0.0,5.0,96,0.00,,SKC,0.18,VWS V14.01,2013-01-11 01:56:00,
2013-01-10 19:59:00,35.0,34.0,29.78,South,178,3.0,6.0,96,0.00,,SKC,0.18,VWS V14.01,2013-01-11 01:59:00,
2013-01-10 20:04:00,35.0,34.0,29.79,SSW,198,2.0,6.0,96,0.00,,SKC,0.18,VWS V14.01,2013-01-11 02:04:00,
2013-01-10 20:08:00,34.8,33.8,29.79,South,183,1.0,6.0,96,0.00,,SKC,0.18,VWS V14.01,2013-01-11 02:08:00,
2013-01-10 20:16:00,35.0,34.0,29.79,South,190,2.0,7.0,96,0.00,,SKC,0.18,VWS V14.01,2013-01-11 02:16:00,
2013-01-10 20:24:00,35.3,34.3,29.79,SSW,208,3.0,7.0,96,0.00,,SKC,0.18,VWS V14.01,2013-01-11 02:24:00,
2013-01-10 20:29:00,35.2,34.2,29.79,SSW,207,3.0,7.0,96,0.00,,SKC,0.18,VWS V14.01,2013-01-11 02:29:00,
2013-01-10 20:32:00,35.1,34.1,29.79,SSW,208,3.0,4.0,96,0.00,,SKC,0.18,VWS V14.01,2013-01-11 02:32:00,
2013-01-10 20:40:00,34.8,33.8,29.78,SSW,208,0.0,4.0,96,0.00,,SKC,0.18,VWS V14.01,2013-01-11 02:40:00,
2013-01-10 20:48:00,34.8,33.8,29.77,SSW,208,0.0,4.0,96,0.00,,SKC,0.18,VWS V14.01,2013-01-11 02:48:00,
2013-01-10 20:52:00,34.9,33.9,29.77,SSW,208,0.0,4.0,96,0.00,,SKC,0.18,VWS V14.01,2013-01-11 02:52:00,
2013-01-10 20:59:00,34.9,33.9,29.77,SSW,208,0.0,4.0,96,0.00,,SKC,0.18,VWS V14.01,2013-01-11 02:59:00,
2013-01-10 21:08:00,34.8,33.8,29.76,SSW,208,0.0,0.0,96,0.00,,SKC,0.18,VWS V14.01,2013-01-11 03:08:00,
2013-01-10 21:16:00,34.4,33.4,29.77,SSW,208,0.0,0.0,96,0.00,,SKC,0.18,VWS V14.01,2013-01-11 03:16:00,
2013-01-10 21:20:00,34.4,33.4,29.76,SSW,208,0.0,1.0,96,0.00,,SKC,0.18,VWS V14.01,2013-01-11 03:20:00,
2013-01-10 21:28:00,34.6,33.6,29.76,SSW,208,3.0,4.0,96,0.00,,SKC,0.18,VWS V14.01,2013-01-11 03:28:00,
2013-01-10 21:29:00,34.6,33.6,29.76,SSW,208,2.0,4.0,96,0.00,,SKC,0.18,VWS V14.01,2013-01-11 03:29:00,
2013-01-10 21:32:00,34.6,33.6,29.76,SSW,208,3.0,4.0,96,0.00,,SKC,0.18,VWS V14.01,2013-01-11 03:32:00,
2013-01-10 21:36:00,34.6,33.6,29.75,SSW,208,0.0,4.0,96,0.00,,SKC,0.18,VWS V14.01,2013-01-11 03:36:00,
2013-01-10 21:44:00,34.7,33.7,29.75,SSW,208,0.0,4.0,96,0.00,,SKC,0.18,VWS V14.01,2013-01-11 03:44:00,
2013-01-10 21:48:00,34.8,33.8,29.74,SSW,208,0.0,4.0,96,0.00,,SKC,0.18,VWS V14.01,2013-01-11 03:48:00,
2013-01-10 21:52:00,34.9,33.9,29.74,SSW,208,0.0,4.0,96,0.00,,SKC,0.18,VWS V14.01,2013-01-11 03:52:00,
2013-01-10 21:56:00,35.0,34.0,29.74,SSW,208,0.0,4.0,96,0.00,,SKC,0.18,VWS V14.01,2013-01-11 03:56:00,
2013-01-10 21:59:00,35.1,34.1,29.74,SSW,208,0.0,4.0,96,0.00,,SKC,0.18,VWS V14.01,2013-01-11 03:59:00,
2013-01-10 22:04:00,35.1,34.1,29.74,SSW,208,0.0,0.0,96,0.00,,SKC,0.18,VWS V14.01,2013-01-11 04:04:00,
2013-01-10 22:08:00,35.3,34.3,29.73,SSW,208,0.0,1.0,96,0.00,,SKC,0.18,VWS V14.01,2013-01-11 04:08:00,
2013-01-10 22:16:00,35.2,34.2,29.73,SSW,208,0.0,3.0,96,0.00,,SKC,0.18,VWS V14.01,2013-01-11 04:16:00,
2013-01-10 22:20:00,35.1,34.1,29.72,SSW,208,0.0,3.0,96,0.00,,SKC,0.18,VWS V14.01,2013-01-11 04:20:00,
2013-01-10 22:33:00,35.2,34.2,29.72,SSW,208,0.0,0.0,96,0.00,,SKC,0.18,VWS V14.01,2013-01-11 04:33:00,
2013-01-10 22:41:00,34.6,33.6,29.71,SSW,208,0.0,0.0,96,0.00,,SKC,0.18,VWS V14.01,2013-01-11 04:41:00,
2013-01-10 22:45:00,34.5,33.5,29.71,SSW,208,0.0,0.0,96,0.00,,SKC,0.18,VWS V14.01,2013-01-11 04:45:00,
2013-01-10 22:49:00,34.5,33.5,29.71,SSW,208,0.0,0.0,96,0.00,,SKC,0.18,VWS V14.01,2013-01-11 04:49:00,
2013-01-10 22:57:00,34.2,33.2,29.72,SSW,208,0.0,1.0,96,0.00,,SKC,0.18,VWS V14.01,2013-01-11 04:57:00,
2013-01-10 23:05:00,34.1,33.1,29.71,SE,133,0.0,3.0,96,0.00,,SKC,0.18,VWS V14.01,2013-01-11 05:05:00,
2013-01-10 23:13:00,34.3,33.3,29.71,SE,144,5.0,5.0,96,0.00,,SKC,0.18,VWS V14.01,2013-01-11 05:13:00,
2013-01-10 23:17:00,34.5,33.5,29.71,South,180,4.0,5.0,96,0.00,,SKC,0.18,VWS V14.01,2013-01-11 05:17:00,
2013-01-10 23:21:00,34.9,33.9,29.71,SSE,159,5.0,6.0,96,0.00,,SKC,0.18,VWS V14.01,2013-01-11 05:21:00,
2013-01-10 23:25:00,35.1,34.1,29.71,SSE,167,4.0,7.0,96,0.00,,SKC,0.18,VWS V14.01,2013-01-11 05:25:00,
2013-01-10 23:29:00,35.1,34.1,29.71,SSE,154,5.0,7.0,96,0.00,,SKC,0.18,VWS V14.01,2013-01-11 05:29:00,
2013-01-10 23:37:00,35.5,34.5,29.71,SSE,163,6.0,7.0,96,0.00,,SKC,0.18,VWS V14.01,2013-01-11 05:37:00,
2013-01-10 23:45:00,35.8,34.8,29.70,SSW,192,4.0,8.0,96,0.00,,SKC,0.18,VWS V14.01,2013-01-11 05:45:00,
2013-01-10 23:49:00,35.4,34.4,29.71,South,180,2.0,8.0,96,0.00,,SKC,0.18,VWS V14.01,2013-01-11 05:49:00,
2013-01-10 23:57:00,35.1,34.1,29.71,South,178,3.0,8.0,96,0.00,,SKC,0.18,VWS V14.01,2013-01-11 05:57:00,
2013-01-10 23:59:00,35.3,34.3,29.71,South,175,5.0,8.0,96,0.00,,SKC,0.00,VWS V14.01,2013-01-11 05:59:00,